Time;durP1;ratioP1;P1;durP2;ratioP2;P2;SDS_P1;SDS_P2;PMS_P1;PMS_P2;Temp;Humidity;BMP_temperature;BMP_pressure;BME280_temperature;BME280_humidity;BME280_pressure;Samples;Min_cycle;Max_cycle;Signal;HPM_P1;HPM_P2
2024/03/08 00:00:18;;;;;;;28.47;16.00;;;1.10;99.90;;;;;;5115679;28;20139;-80
2024/03/08 00:02:45;;;;;;;24.30;14.80;;;1.00;99.90;;;;;;5113042;27;20081;-80
2024/03/08 00:05:10;;;;;;;21.90;14.60;;;1.00;99.90;;;;;;5113214;28;20024;-80
2024/03/08 00:07:37;;;;;;;24.40;14.57;;;1.00;99.90;;;;;;5113375;28;20026;-79
2024/03/08 00:10:10;;;;;;;24.93;14.90;;;1.00;99.90;;;;;;5112555;28;20022;-80
2024/03/08 00:12:41;;;;;;;25.50;14.90;;;0.90;99.90;;;;;;5113443;28;20027;-79
2024/03/08 00:15:10;;;;;;;28.00;16.10;;;0.90;99.90;;;;;;5114335;28;20024;-81
2024/03/08 00:17:36;;;;;;;23.37;15.13;;;0.90;99.90;;;;;;5113496;27;20038;-80
2024/03/08 00:20:08;;;;;;;24.80;15.07;;;0.90;99.90;;;;;;5114728;27;20024;-80
2024/03/08 00:22:34;;;;;;;25.87;15.40;;;0.90;99.90;;;;;;5114367;27;20398;-81
2024/03/08 00:24:59;;;;;;;24.30;14.67;;;0.90;99.90;;;;;;5114186;28;20028;-81
2024/03/08 00:27:25;;;;;;;26.60;14.60;;;0.90;99.90;;;;;;5114247;28;20019;-80
2024/03/08 00:29:50;;;;;;;27.57;15.13;;;0.80;99.90;;;;;;5114562;28;20607;-80
2024/03/08 00:32:17;;;;;;;21.73;14.50;;;0.90;99.90;;;;;;5111836;28;20027;-80
2024/03/08 00:34:42;;;;;;;26.70;15.70;;;0.80;99.90;;;;;;5112480;28;20027;-80
2024/03/08 00:37:08;;;;;;;23.90;14.83;;;0.80;99.90;;;;;;5114032;28;20404;-80
2024/03/08 00:39:34;;;;;;;28.17;17.30;;;0.80;99.90;;;;;;5114206;28;20024;-80
2024/03/08 00:41:59;;;;;;;25.40;15.87;;;0.80;99.90;;;;;;5111109;28;20475;-82
2024/03/08 00:44:25;;;;;;;26.23;16.03;;;0.80;99.90;;;;;;5111844;28;20024;-79
2024/03/08 00:46:51;;;;;;;25.60;15.93;;;0.80;99.90;;;;;;5112447;28;20024;-80
2024/03/08 00:49:16;;;;;;;24.60;15.53;;;0.80;99.90;;;;;;5111866;28;20392;-80
2024/03/08 00:51:43;;;;;;;24.87;15.97;;;0.80;99.90;;;;;;5110971;28;20024;-80
2024/03/08 00:54:09;;;;;;;26.83;15.90;;;0.70;99.90;;;;;;5110040;28;20069;-80
2024/03/08 00:56:35;;;;;;;27.03;16.30;;;0.70;99.90;;;;;;5109923;28;20039;-80
2024/03/08 00:59:02;;;;;;;26.07;15.50;;;0.70;99.90;;;;;;5110598;28;20036;-80
2024/03/08 01:01:28;;;;;;;30.53;16.37;;;0.70;99.90;;;;;;5109750;28;20445;-81
2024/03/08 01:03:53;;;;;;;26.33;15.20;;;0.70;99.90;;;;;;5110681;28;20056;-79
2024/03/08 01:06:19;;;;;;;25.43;16.60;;;0.70;99.90;;;;;;5112723;28;20031;-79
2024/03/08 01:08:45;;;;;;;24.97;15.47;;;0.70;99.90;;;;;;5109347;28;20069;-80
2024/03/08 01:11:13;;;;;;;26.93;16.70;;;0.70;99.90;;;;;;5110054;28;20098;-79
2024/03/08 01:13:39;;;;;;;28.10;15.37;;;0.70;99.90;;;;;;5110264;28;20517;-80
2024/03/08 01:16:05;;;;;;;24.40;15.93;;;0.70;99.90;;;;;;5112258;28;20103;-80
2024/03/08 01:18:31;;;;;;;23.60;14.67;;;0.70;99.90;;;;;;5113586;28;20023;-79
2024/03/08 01:20:57;;;;;;;23.97;15.97;;;0.70;99.90;;;;;;5115667;27;20032;-79
2024/03/08 01:23:22;;;;;;;25.07;15.40;;;0.70;99.90;;;;;;5115056;27;20054;-80
2024/03/08 01:25:52;;;;;;;27.20;16.70;;;0.70;99.90;;;;;;5114993;28;20498;-81
2024/03/08 01:28:17;;;;;;;27.70;16.57;;;0.70;99.90;;;;;;5117180;28;20102;-79
2024/03/08 01:30:43;;;;;;;29.37;16.57;;;0.70;99.90;;;;;;5114409;27;20118;-79
2024/03/08 01:33:08;;;;;;;29.47;16.53;;;0.60;99.90;;;;;;5114886;27;20119;-83
2024/03/08 01:35:34;;;;;;;29.33;17.23;;;0.70;99.90;;;;;;5114300;28;20045;-80
2024/03/08 01:37:59;;;;;;;25.70;16.43;;;0.70;99.90;;;;;;5114766;28;20015;-79
2024/03/08 01:40:25;;;;;;;26.70;16.57;;;0.70;99.90;;;;;;5116323;28;20102;-81
2024/03/08 01:42:51;;;;;;;29.37;17.40;;;0.70;99.90;;;;;;5115297;28;20023;-80
2024/03/08 01:45:16;;;;;;;29.77;17.07;;;0.70;99.90;;;;;;5114491;27;20039;-81
2024/03/08 01:47:42;;;;;;;28.23;16.20;;;0.70;99.90;;;;;;5115142;27;20066;-80
2024/03/08 01:50:08;;;;;;;23.30;15.47;;;0.60;99.90;;;;;;5115799;28;20023;-81
2024/03/08 01:52:35;;;;;;;26.63;16.17;;;0.60;99.90;;;;;;5115144;28;20027;-80
2024/03/08 01:55:03;;;;;;;27.70;16.03;;;0.60;99.90;;;;;;5114325;27;20015;-79
2024/03/08 01:57:31;;;;;;;27.83;16.30;;;0.60;99.90;;;;;;5114532;28;20369;-80
2024/03/08 01:59:57;;;;;;;29.50;18.07;;;0.60;99.90;;;;;;5115117;27;20511;-80
2024/03/08 02:02:22;;;;;;;28.27;16.67;;;0.60;99.90;;;;;;5116416;28;20051;-81
2024/03/08 02:04:48;;;;;;;29.37;16.50;;;0.60;99.90;;;;;;5114421;28;20027;-79
2024/03/08 02:07:14;;;;;;;28.43;16.83;;;0.60;99.90;;;;;;5113806;27;20082;-79
2024/03/08 02:09:40;;;;;;;27.70;16.47;;;0.60;99.90;;;;;;5114994;27;20692;-80
2024/03/08 02:12:07;;;;;;;30.50;16.70;;;0.50;99.90;;;;;;5113673;28;20490;-79
2024/03/08 02:14:33;;;;;;;26.30;15.70;;;0.60;99.90;;;;;;5114469;28;21672;-80
2024/03/08 02:17:02;;;;;;;27.20;16.23;;;0.60;99.90;;;;;;5115768;28;20098;-80
2024/03/08 02:19:28;;;;;;;28.73;17.20;;;0.60;99.90;;;;;;5114886;27;20046;-79
2024/03/08 02:21:53;;;;;;;29.40;17.20;;;0.60;99.90;;;;;;5114893;27;20055;-79
2024/03/08 02:24:19;;;;;;;28.67;15.80;;;0.60;99.90;;;;;;5114349;28;20107;-80
2024/03/08 02:26:45;;;;;;;31.03;17.37;;;0.60;99.90;;;;;;5116021;28;20118;-80
2024/03/08 02:29:10;;;;;;;30.47;17.37;;;0.50;99.90;;;;;;5113731;27;20050;-79
2024/03/08 02:31:36;;;;;;;31.90;17.73;;;0.50;99.90;;;;;;5113973;28;20417;-80
2024/03/08 02:34:02;;;;;;;29.80;17.53;;;0.50;99.90;;;;;;5112959;27;20418;-80
2024/03/08 02:36:27;;;;;;;36.03;18.40;;;0.50;99.90;;;;;;5112926;27;20145;-80
2024/03/08 02:38:55;;;;;;;31.47;19.07;;;0.40;99.90;;;;;;5113243;28;20172;-80
2024/03/08 02:41:21;;;;;;;28.67;17.20;;;0.40;99.90;;;;;;5115119;28;20032;-79
2024/03/08 02:43:46;;;;;;;29.57;17.60;;;0.40;99.90;;;;;;5112970;28;20524;-79
2024/03/08 02:46:12;;;;;;;30.47;18.77;;;0.40;99.90;;;;;;5112131;28;20493;-80
2024/03/08 02:48:37;;;;;;;30.33;17.63;;;0.40;99.90;;;;;;5112923;28;20023;-80
2024/03/08 02:51:03;;;;;;;27.03;17.53;;;0.40;99.90;;;;;;5111915;28;20016;-80
2024/03/08 02:53:28;;;;;;;28.40;17.23;;;0.40;99.90;;;;;;5114953;28;20104;-79
2024/03/08 02:55:55;;;;;;;33.53;18.40;;;0.40;99.90;;;;;;5110378;28;20023;-80
2024/03/08 02:58:20;;;;;;;35.27;19.33;;;0.30;99.90;;;;;;5110884;27;20035;-79
2024/03/08 03:00:46;;;;;;;32.30;18.37;;;0.30;99.90;;;;;;5112288;28;20031;-79
2024/03/08 03:03:11;;;;;;;32.87;18.33;;;0.30;99.90;;;;;;5110785;27;21599;-80
2024/03/08 03:05:37;;;;;;;32.57;17.90;;;0.30;99.90;;;;;;5110867;27;20498;-79
2024/03/08 03:08:08;;;;;;;32.80;18.67;;;0.30;99.90;;;;;;5113664;28;20484;-79
2024/03/08 03:10:34;;;;;;;28.70;17.27;;;0.20;99.90;;;;;;5114089;28;20144;-80
2024/03/08 03:12:59;;;;;;;31.73;17.80;;;0.20;99.90;;;;;;5113568;27;20032;-79
2024/03/08 03:15:25;;;;;;;29.37;19.20;;;0.20;99.90;;;;;;5113191;28;20043;-80
2024/03/08 03:17:51;;;;;;;33.77;17.80;;;0.20;99.90;;;;;;5114549;28;20110;-79
2024/03/08 03:20:23;;;;;;;31.90;18.63;;;0.20;99.90;;;;;;5113444;27;20048;-80
2024/03/08 03:22:51;;;;;;;33.80;18.77;;;0.20;99.90;;;;;;5112752;28;20089;-80
2024/03/08 03:25:25;;;;;;;32.67;17.93;;;0.20;99.90;;;;;;5111692;28;20024;-79
2024/03/08 03:27:52;;;;;;;34.90;18.37;;;0.20;99.90;;;;;;5112852;28;20064;-80
2024/03/08 03:30:20;;;;;;;29.83;17.30;;;0.20;99.90;;;;;;5113609;28;20031;-81
2024/03/08 03:32:47;;;;;;;32.77;18.57;;;0.10;99.90;;;;;;5113265;28;20038;-80
2024/03/08 03:35:14;;;;;;;34.17;18.97;;;0.10;99.90;;;;;;5112459;28;20035;-79
2024/03/08 03:37:42;;;;;;;31.30;18.50;;;0.10;99.90;;;;;;5112227;28;20078;-80
2024/03/08 03:40:08;;;;;;;36.50;20.33;;;0.10;99.90;;;;;;5113092;28;20142;-80
2024/03/08 03:42:34;;;;;;;35.37;20.03;;;0.10;99.90;;;;;;5111959;27;20387;-79
2024/03/08 03:45:00;;;;;;;34.30;19.97;;;0.00;99.90;;;;;;5110930;27;20020;-81
2024/03/08 03:47:26;;;;;;;33.50;20.27;;;0.10;99.90;;;;;;5112178;27;20122;-79
2024/03/08 03:49:54;;;;;;;33.07;19.43;;;0.00;99.90;;;;;;5111462;28;20501;-80
2024/03/08 03:52:19;;;;;;;32.43;18.50;;;0.00;99.90;;;;;;5112119;28;20015;-79
2024/03/08 03:54:44;;;;;;;34.03;18.93;;;0.00;99.90;;;;;;5112354;28;20020;-79
2024/03/08 03:57:11;;;;;;;32.50;18.67;;;0.00;99.90;;;;;;5113730;28;20516;-81
2024/03/08 03:59:37;;;;;;;35.67;20.07;;;0.00;99.90;;;;;;5111590;28;20019;-79
2024/03/08 04:02:03;;;;;;;32.83;19.50;;;0.00;99.90;;;;;;5112139;28;20034;-80
2024/03/08 04:04:29;;;;;;;35.10;20.00;;;0.00;99.90;;;;;;5111217;28;20484;-79
2024/03/08 04:06:55;;;;;;;33.10;20.07;;;0.00;99.90;;;;;;5112169;28;20100;-79
2024/03/08 04:09:22;;;;;;;35.40;20.23;;;0.00;99.90;;;;;;5112690;28;20023;-79
2024/03/08 04:11:48;;;;;;;37.03;21.07;;;0.00;99.90;;;;;;5111783;28;20501;-79
2024/03/08 04:14:13;;;;;;;35.47;20.37;;;-0.10;99.90;;;;;;5111458;27;20028;-79
2024/03/08 04:16:39;;;;;;;34.07;20.07;;;-0.10;99.90;;;;;;5111105;28;20036;-79
2024/03/08 04:19:04;;;;;;;36.60;21.30;;;-0.10;99.90;;;;;;5112732;28;20100;-81
2024/03/08 04:21:30;;;;;;;36.93;20.93;;;-0.10;99.90;;;;;;5113772;28;20080;-79
2024/03/08 04:23:56;;;;;;;32.67;19.57;;;-0.10;99.90;;;;;;5111807;27;20392;-79
2024/03/08 04:26:22;;;;;;;38.53;21.53;;;-0.10;99.90;;;;;;5111751;28;20106;-79
2024/03/08 04:28:47;;;;;;;37.87;21.50;;;-0.10;99.90;;;;;;5112148;28;20088;-79
2024/03/08 04:31:13;;;;;;;35.37;21.60;;;-0.10;99.90;;;;;;5112433;28;20020;-80
2024/03/08 04:33:38;;;;;;;36.37;20.50;;;-0.10;99.90;;;;;;5111267;28;20102;-80
2024/03/08 04:36:04;;;;;;;38.13;20.43;;;-0.10;99.90;;;;;;5110231;28;20023;-79
2024/03/08 04:38:30;;;;;;;34.53;21.03;;;-0.10;99.90;;;;;;5111516;28;20036;-80
2024/03/08 04:40:57;;;;;;;36.27;21.00;;;-0.10;99.90;;;;;;5113929;28;20038;-79
2024/03/08 04:43:25;;;;;;;37.30;22.00;;;-0.10;99.90;;;;;;5111344;28;20031;-80
2024/03/08 04:45:51;;;;;;;35.07;20.47;;;-0.10;99.90;;;;;;5111872;28;20024;-80
2024/03/08 04:48:16;;;;;;;37.23;22.00;;;-0.10;99.90;;;;;;5112263;28;20024;-81
2024/03/08 04:50:42;;;;;;;38.07;21.87;;;-0.10;99.90;;;;;;5112925;28;20024;-80
2024/03/08 04:53:08;;;;;;;37.07;23.03;;;-0.10;99.90;;;;;;5114748;28;20024;-80
2024/03/08 04:55:34;;;;;;;36.07;21.63;;;-0.20;99.90;;;;;;5114757;27;20472;-80
2024/03/08 04:58:00;;;;;;;36.57;21.90;;;-0.10;99.90;;;;;;5117296;28;20038;-80
2024/03/08 05:00:25;;;;;;;40.87;23.73;;;-0.10;99.90;;;;;;5116482;27;20016;-79
2024/03/08 05:02:53;;;;;;;39.40;22.23;;;-0.10;99.90;;;;;;5116145;28;20119;-81
2024/03/08 05:05:18;;;;;;;41.57;22.00;;;-0.10;99.90;;;;;;5116506;28;20065;-80
2024/03/08 05:07:45;;;;;;;36.97;23.00;;;-0.10;99.90;;;;;;5116622;28;20425;-79
2024/03/08 05:10:11;;;;;;;41.00;23.90;;;-0.10;99.90;;;;;;5116464;27;20024;-81
2024/03/08 05:12:38;;;;;;;41.60;23.17;;;0.00;99.90;;;;;;5115408;28;20042;-80
2024/03/08 05:15:05;;;;;;;43.67;23.83;;;0.00;99.90;;;;;;5114643;27;20070;-79
2024/03/08 05:17:31;;;;;;;39.07;23.93;;;0.00;99.90;;;;;;5115402;27;20664;-79
2024/03/08 05:19:56;;;;;;;40.23;23.37;;;0.00;99.90;;;;;;5115664;28;20059;-80
2024/03/08 05:22:22;;;;;;;40.37;25.13;;;-0.10;99.90;;;;;;5114184;27;20032;-79
2024/03/08 05:24:47;;;;;;;43.20;23.97;;;-0.10;99.90;;;;;;5113604;27;20438;-80
2024/03/08 05:27:13;;;;;;;46.10;25.73;;;-0.10;99.90;;;;;;5114460;27;20484;-80
2024/03/08 05:29:39;;;;;;;41.73;23.93;;;-0.10;99.90;;;;;;5114367;27;20068;-79
2024/03/08 05:32:04;;;;;;;40.20;24.37;;;-0.10;99.90;;;;;;5114410;28;20011;-81
2024/03/08 05:34:30;;;;;;;45.07;24.97;;;-0.10;99.90;;;;;;5114347;28;20027;-79
2024/03/08 05:36:57;;;;;;;41.37;26.13;;;-0.10;99.90;;;;;;5114021;27;20391;-80
2024/03/08 05:39:23;;;;;;;40.10;22.83;;;-0.10;99.90;;;;;;5113554;28;20096;-80
2024/03/08 05:41:50;;;;;;;46.60;26.43;;;-0.10;99.90;;;;;;5114824;28;20111;-82
2024/03/08 05:44:19;;;;;;;56.33;33.17;;;-0.10;99.90;;;;;;5113501;27;20019;-81
2024/03/08 05:46:46;;;;;;;51.17;33.20;;;-0.10;99.90;;;;;;5114598;27;20028;-80
2024/03/08 05:49:11;;;;;;;45.37;25.93;;;-0.10;99.90;;;;;;5114554;28;20015;-80
2024/03/08 05:51:41;;;;;;;48.27;27.73;;;-0.10;99.90;;;;;;5108193;27;20970;-84
2024/03/08 05:54:09;;;;;;;47.50;27.23;;;-0.10;99.90;;;;;;5113714;27;20025;-79
2024/03/08 05:56:35;;;;;;;43.10;25.57;;;-0.10;99.90;;;;;;5113103;28;20027;-79
2024/03/08 05:59:01;;;;;;;48.97;26.10;;;-0.10;99.90;;;;;;5113595;28;20395;-79
2024/03/08 06:01:28;;;;;;;59.17;35.20;;;0.00;99.90;;;;;;5113961;27;20073;-79
2024/03/08 06:03:57;;;;;;;46.53;26.27;;;0.00;99.90;;;;;;5110766;28;20046;-81
2024/03/08 06:06:23;;;;;;;63.07;37.73;;;0.00;99.90;;;;;;5113329;27;20110;-80
2024/03/08 06:08:49;;;;;;;50.40;29.07;;;0.10;99.90;;;;;;5112607;28;20023;-80
2024/03/08 06:11:17;;;;;;;54.17;33.50;;;0.10;99.90;;;;;;5111296;27;20015;-79
2024/03/08 06:13:43;;;;;;;61.03;37.57;;;0.10;99.90;;;;;;5111454;27;20027;-80
2024/03/08 06:16:09;;;;;;;48.83;31.23;;;0.10;99.90;;;;;;5111169;28;20022;-79
2024/03/08 06:18:37;;;;;;;47.10;27.37;;;0.20;99.90;;;;;;5111575;28;20024;-80
2024/03/08 06:21:06;;;;;;;41.30;26.00;;;0.20;99.90;;;;;;5114904;28;20031;-79
2024/03/08 06:23:33;;;;;;;43.13;25.27;;;0.20;99.90;;;;;;5113533;28;20487;-79
2024/03/08 06:25:58;;;;;;;41.27;24.13;;;0.30;99.90;;;;;;5112772;27;20085;-79
2024/03/08 06:28:24;;;;;;;42.80;25.37;;;0.30;99.90;;;;;;5114009;28;20468;-79
2024/03/08 06:30:51;;;;;;;48.00;26.27;;;0.30;99.90;;;;;;5112003;28;20023;-79
2024/03/08 06:33:20;;;;;;;40.13;23.77;;;0.30;99.90;;;;;;5115134;27;20023;-79
2024/03/08 06:35:45;;;;;;;37.07;23.97;;;0.40;99.90;;;;;;5115853;28;20034;-73
2024/03/08 06:38:11;;;;;;;40.60;23.13;;;0.50;99.90;;;;;;5111108;27;20024;-77
2024/03/08 06:40:37;;;;;;;42.33;24.80;;;0.50;99.90;;;;;;5111204;27;20388;-76
2024/03/08 06:43:05;;;;;;;38.93;23.33;;;0.50;99.90;;;;;;5116193;27;20043;-76
2024/03/08 06:45:31;;;;;;;38.20;21.87;;;0.60;99.90;;;;;;5112496;27;20050;-76
2024/03/08 06:47:57;;;;;;;40.20;22.83;;;0.60;99.90;;;;;;5114719;27;20059;-78
2024/03/08 06:50:22;;;;;;;45.80;25.03;;;0.60;99.90;;;;;;5114464;27;20024;-77
2024/03/08 06:52:53;;;;;;;43.53;24.93;;;0.70;99.90;;;;;;5112074;27;20035;-78
2024/03/08 06:55:21;;;;;;;46.73;27.87;;;0.70;99.90;;;;;;5115086;27;20019;-77
2024/03/08 06:57:47;;;;;;;42.43;25.17;;;0.80;99.90;;;;;;5111200;27;20077;-77
2024/03/08 07:00:18;;;;;;;64.10;35.93;;;0.80;99.90;;;;;;5111246;27;20037;-77
2024/03/08 07:02:45;;;;;;;61.23;36.53;;;0.80;99.90;;;;;;5107086;28;20091;-77
2024/03/08 07:05:11;;;;;;;47.07;30.43;;;0.90;99.90;;;;;;5109483;28;20542;-77
2024/03/08 07:07:37;;;;;;;35.60;21.40;;;0.90;99.90;;;;;;5110840;28;20027;-77
2024/03/08 07:10:03;;;;;;;40.87;25.03;;;1.00;99.90;;;;;;5110336;28;20027;-77
2024/03/08 07:12:28;;;;;;;43.30;24.93;;;1.00;99.90;;;;;;5111397;27;20508;-77
2024/03/08 07:14:54;;;;;;;37.03;21.80;;;1.10;99.90;;;;;;5112474;27;20156;-77
2024/03/08 07:17:20;;;;;;;39.40;21.20;;;1.10;99.90;;;;;;5109901;28;20383;-77
2024/03/08 07:19:45;;;;;;;33.30;19.73;;;1.20;99.90;;;;;;5111264;28;20023;-77
2024/03/08 07:22:11;;;;;;;40.10;23.93;;;1.30;99.90;;;;;;5111546;28;20027;-77
2024/03/08 07:27:04;;;;;;;32.37;19.07;;;1.40;99.90;;;;;;5109152;27;20115;-78
2024/03/08 07:29:30;;;;;;;37.10;18.80;;;1.60;99.90;;;;;;5114441;27;20027;-77
2024/03/08 07:32:11;;;;;;;35.17;19.40;;;1.70;99.90;;;;;;5116586;27;20069;-77
2024/03/08 07:34:39;;;;;;;35.60;19.00;;;1.70;99.90;;;;;;5114326;27;20037;-77
2024/03/08 07:37:05;;;;;;;35.10;21.60;;;1.70;99.90;;;;;;5117660;27;20023;-77
2024/03/08 07:39:31;;;;;;;41.17;22.80;;;1.80;99.90;;;;;;5112781;27;20068;-77
2024/03/08 07:41:57;;;;;;;33.73;20.30;;;1.80;99.90;;;;;;5118199;27;20042;-77
2024/03/08 07:44:23;;;;;;;32.57;19.90;;;1.80;99.90;;;;;;5113738;27;20012;-78
2024/03/08 07:46:49;;;;;;;29.33;18.37;;;1.80;99.90;;;;;;5115706;27;20028;-78
2024/03/08 07:49:15;;;;;;;31.23;18.00;;;1.80;99.90;;;;;;5115085;27;20408;-77
2024/03/08 07:51:41;;;;;;;27.40;17.73;;;1.90;99.90;;;;;;5115326;27;20455;-77
2024/03/08 07:54:09;;;;;;;31.60;20.30;;;1.90;99.90;;;;;;5111425;27;20399;-77
2024/03/08 07:56:36;;;;;;;31.63;19.23;;;2.00;99.90;;;;;;5114244;27;20016;-78
2024/03/08 07:59:03;;;;;;;35.07;18.60;;;2.00;99.90;;;;;;5111940;27;20082;-77
2024/03/08 08:01:30;;;;;;;41.17;19.17;;;2.10;99.90;;;;;;5114943;27;20158;-77
2024/03/08 08:03:56;;;;;;;36.50;19.97;;;2.20;99.90;;;;;;5111872;27;20528;-78
2024/03/08 08:06:22;;;;;;;32.87;18.77;;;2.20;99.90;;;;;;5113932;27;20456;-78
2024/03/08 08:08:48;;;;;;;35.10;20.23;;;2.30;99.90;;;;;;5110986;27;20031;-78
2024/03/08 08:11:16;;;;;;;37.83;21.10;;;2.30;99.90;;;;;;5113319;27;20035;-78
2024/03/08 08:13:43;;;;;;;35.33;21.20;;;2.40;99.90;;;;;;5115119;27;20051;-77
2024/03/08 08:16:09;;;;;;;37.37;22.00;;;2.50;99.90;;;;;;5112821;27;20027;-78
2024/03/08 08:18:35;;;;;;;33.20;19.23;;;2.50;99.90;;;;;;5113398;27;20069;-78
2024/03/08 08:21:01;;;;;;;32.57;20.60;;;2.70;99.90;;;;;;5113923;27;20565;-78
2024/03/08 08:23:26;;;;;;;40.33;22.57;;;2.80;99.90;;;;;;5109888;27;20040;-78
2024/03/08 08:25:52;;;;;;;39.43;21.17;;;2.90;99.90;;;;;;5111399;27;20391;-78
2024/03/08 08:28:18;;;;;;;39.57;22.40;;;3.10;99.90;;;;;;5110647;27;20019;-77
2024/03/08 08:30:44;;;;;;;33.60;19.73;;;3.20;99.90;;;;;;5117422;27;20377;-78
2024/03/08 08:33:10;;;;;;;36.00;21.07;;;3.30;99.90;;;;;;5112747;28;20055;-78
2024/03/08 08:35:37;;;;;;;33.97;18.17;;;3.40;99.90;;;;;;5106747;28;20039;-78
2024/03/08 08:38:03;;;;;;;33.53;19.50;;;3.50;99.90;;;;;;5114832;27;20391;-79
2024/03/08 08:40:30;;;;;;;34.67;22.07;;;3.40;99.90;;;;;;5113840;27;20024;-78
2024/03/08 08:42:59;;;;;;;32.20;18.93;;;3.50;99.90;;;;;;5114221;27;20036;-78
2024/03/08 08:45:25;;;;;;;33.47;18.37;;;3.50;99.90;;;;;;5115500;27;20057;-78
2024/03/08 08:47:51;;;;;;;34.00;19.13;;;3.60;99.90;;;;;;5120131;27;20019;-78
2024/03/08 08:50:22;;;;;;;37.57;21.77;;;3.70;99.90;;;;;;5123639;28;20023;-78
2024/03/08 08:52:48;;;;;;;39.10;23.93;;;3.90;99.90;;;;;;5119245;28;20027;-78
2024/03/08 08:55:14;;;;;;;41.87;22.77;;;3.90;99.90;;;;;;5116787;27;20055;-78
2024/03/08 08:57:44;;;;;;;49.47;27.47;;;3.90;99.90;;;;;;5117735;28;20074;-78
2024/03/08 09:00:15;;;;;;;33.27;20.13;;;3.90;99.90;;;;;;5118422;28;20031;-78
2024/03/08 09:02:41;;;;;;;33.50;20.97;;;3.90;99.90;;;;;;5117647;28;20093;-78
2024/03/08 09:05:09;;;;;;;33.57;19.40;;;3.90;99.90;;;;;;5110501;28;20059;-78
2024/03/08 09:07:35;;;;;;;36.40;19.97;;;4.00;99.90;;;;;;5117763;28;20081;-78
2024/03/08 09:10:01;;;;;;;34.70;19.67;;;4.10;99.90;;;;;;5117337;28;20072;-78
2024/03/08 09:12:26;;;;;;;34.87;20.40;;;4.10;99.90;;;;;;5107465;28;20015;-78
2024/03/08 09:14:52;;;;;;;32.60;19.57;;;4.10;99.90;;;;;;5110874;28;20016;-78
2024/03/08 09:17:20;;;;;;;32.23;19.30;;;4.20;99.90;;;;;;5113101;27;20070;-78
2024/03/08 09:19:47;;;;;;;30.83;17.93;;;4.30;99.90;;;;;;5115065;28;20128;-78
2024/03/08 09:22:13;;;;;;;29.17;17.73;;;4.50;99.90;;;;;;5121666;27;20479;-78
2024/03/08 09:24:38;;;;;;;35.63;20.27;;;4.70;99.90;;;;;;5114926;27;20156;-78
2024/03/08 09:27:04;;;;;;;31.87;18.60;;;4.80;99.90;;;;;;5114085;28;20542;-78
2024/03/08 09:29:30;;;;;;;35.40;20.37;;;4.80;99.90;;;;;;5112232;28;20107;-78
2024/03/08 09:31:55;;;;;;;33.37;19.47;;;4.80;99.90;;;;;;5118998;28;20028;-77
2024/03/08 09:34:21;;;;;;;31.43;18.53;;;4.90;99.90;;;;;;5112068;28;20569;-77
2024/03/08 09:36:46;;;;;;;30.60;18.97;;;4.90;99.90;;;;;;5109737;28;20038;-76
2024/03/08 09:39:16;;;;;;;29.90;18.13;;;5.10;99.90;;;;;;5111866;27;20024;-77
2024/03/08 09:41:43;;;;;;;30.93;17.60;;;5.20;99.90;;;;;;5115586;27;20101;-74
2024/03/08 09:44:09;;;;;;;36.17;20.87;;;5.40;99.90;;;;;;5118510;27;20030;-75
2024/03/08 09:46:35;;;;;;;31.43;18.70;;;5.50;99.90;;;;;;5118361;27;20031;-74
2024/03/08 09:49:01;;;;;;;31.03;16.97;;;5.50;99.90;;;;;;5118205;27;20548;-75
2024/03/08 09:51:29;;;;;;;31.63;17.13;;;5.60;99.90;;;;;;5115448;27;20020;-74
2024/03/08 09:53:54;;;;;;;31.57;18.13;;;5.60;99.90;;;;;;5097169;28;20031;-75
2024/03/08 09:56:23;;;;;;;34.43;19.77;;;5.70;99.90;;;;;;5127430;27;20023;-74
2024/03/08 09:59:06;;;;;;;32.90;18.43;;;5.90;99.90;;;;;;5119228;27;20119;-71
2024/03/08 10:01:32;;;;;;;44.00;24.70;;;6.10;99.90;;;;;;5113998;27;20474;-75
2024/03/08 10:03:57;;;;;;;44.63;25.40;;;6.10;99.90;;;;;;5123634;27;20038;-69
2024/03/08 10:06:24;;;;;;;42.77;24.73;;;6.20;99.90;;;;;;5122558;27;20027;-73
2024/03/08 10:08:51;;;;;;;41.33;25.23;;;6.30;99.90;;;;;;5115070;27;20046;-76
2024/03/08 10:11:18;;;;;;;37.43;21.60;;;6.30;99.90;;;;;;5118900;27;20019;-71
2024/03/08 10:13:46;;;;;;;46.23;25.83;;;6.20;99.90;;;;;;5116967;27;20511;-73
2024/03/08 10:16:12;;;;;;;41.07;23.97;;;6.30;99.90;;;;;;5120592;27;20098;-74
2024/03/08 10:18:38;;;;;;;32.87;21.27;;;6.30;99.90;;;;;;5119676;27;20383;-73
2024/03/08 10:21:09;;;;;;;37.40;21.83;;;6.40;99.90;;;;;;5124179;27;20030;-73
2024/03/08 10:23:36;;;;;;;40.83;21.63;;;6.50;99.90;;;;;;5116820;27;20035;-74
2024/03/08 10:26:16;;;;;;;33.80;21.20;;;6.60;99.90;;;;;;5110992;27;20047;-73
2024/03/08 10:28:42;;;;;;;35.70;21.80;;;6.80;99.90;;;;;;5116434;27;20608;-74
2024/03/08 10:31:09;;;;;;;34.73;20.17;;;7.00;99.90;;;;;;5114450;27;20118;-73
2024/03/08 10:33:35;;;;;;;32.40;20.67;;;7.20;99.90;;;;;;5110986;27;20065;-73
2024/03/08 10:36:01;;;;;;;29.20;19.47;;;7.40;99.90;;;;;;5117022;27;20050;-74
2024/03/08 10:38:28;;;;;;;30.37;18.50;;;7.40;99.90;;;;;;5119200;27;20412;-76
2024/03/08 10:40:55;;;;;;;32.37;18.30;;;7.50;99.90;;;;;;5114411;27;20031;-76
2024/03/08 10:43:29;;;;;;;28.97;17.30;;;7.60;99.90;;;;;;5127924;27;20076;-78
2024/03/08 10:46:32;;;;;;;25.20;16.60;;;7.70;99.90;;;;;;5121413;27;20034;-76
2024/03/08 10:49:02;;;;;;;30.50;19.10;;;7.90;99.90;;;;;;5073807;27;20042;-76
2024/03/08 10:51:29;;;;;;;29.47;17.93;;;8.10;99.90;;;;;;5116621;27;20020;-76
2024/03/08 10:53:57;;;;;;;31.63;19.13;;;8.10;99.90;;;;;;5115352;27;20031;-76
2024/03/08 10:56:23;;;;;;;32.20;18.63;;;8.00;99.90;;;;;;5126343;27;20531;-77
2024/03/08 10:58:49;;;;;;;44.30;24.83;;;8.10;99.90;;;;;;5112057;27;20159;-76
2024/03/08 11:01:15;;;;;;;93.37;47.20;;;8.10;99.90;;;;;;5116801;27;20031;-76
2024/03/08 11:03:44;;;;;;;46.53;26.43;;;8.10;99.90;;;;;;5118009;27;20032;-77
2024/03/08 11:06:37;;;;;;;79.30;41.80;;;8.10;99.90;;;;;;5119371;27;20034;-76
2024/03/08 11:09:23;;;;;;;60.37;32.43;;;8.20;99.90;;;;;;5112685;27;20558;-76
2024/03/08 11:11:49;;;;;;;62.87;32.10;;;8.30;99.90;;;;;;5089057;27;20069;-76
2024/03/08 11:14:52;;;;;;;53.80;29.77;;;8.50;99.90;;;;;;5111534;28;20012;-77
2024/03/08 11:17:28;;;;;;;69.87;36.90;;;8.50;99.90;;;;;;5111267;28;20131;-76
2024/03/08 11:19:56;;;;;;;;;;;8.50;99.90;;;;;;5112170;28;20020;-76
2024/03/08 11:22:32;;;;;;;33.33;20.57;;;8.60;99.90;;;;;;5090737;28;19919;-77
2024/03/08 11:25:09;;;;;;;29.77;17.57;;;8.80;99.90;;;;;;5108463;27;20361;-77
2024/03/08 11:27:36;;;;;;;73.20;42.93;;;9.00;99.90;;;;;;5109020;27;20047;-76
2024/03/08 11:30:15;;;;;;;35.83;20.43;;;9.10;99.90;;;;;;5110898;28;20039;-76
2024/03/08 11:32:45;;;;;;;33.23;20.53;;;9.30;99.90;;;;;;5112714;27;20624;-76
2024/03/08 11:35:21;;;;;;;29.43;19.27;;;9.60;99.90;;;;;;5113644;27;20110;-77
2024/03/08 11:37:47;;;;;;;28.33;18.40;;;9.60;99.90;;;;;;5110338;27;20024;-77
2024/03/08 11:40:16;;;;;;;49.47;32.90;;;9.60;99.90;;;;;;5111088;27;20035;-76
2024/03/08 11:42:49;;;;;;;27.27;18.40;;;9.50;99.90;;;;;;5108072;28;20517;-75
2024/03/08 11:45:17;;;;;;;27.50;17.03;;;9.50;99.90;;;;;;5108714;28;20933;-70
2024/03/08 11:47:47;;;;;;;24.77;16.57;;;9.60;99.90;;;;;;5112183;28;20123;-70
2024/03/08 11:50:13;;;;;;;25.73;17.43;;;9.80;99.90;;;;;;5108888;27;20031;-69
2024/03/08 11:52:39;;;;;;;26.40;16.20;;;9.80;99.90;;;;;;5109270;28;20066;-69
2024/03/08 11:55:05;;;;;;;22.37;14.80;;;9.90;99.90;;;;;;5108630;27;20043;-75
2024/03/08 11:57:32;;;;;;;23.53;15.23;;;9.90;99.90;;;;;;5110933;27;20055;-70
2024/03/08 12:00:05;;;;;;;24.27;15.97;;;9.90;99.90;;;;;;5105483;28;20686;-70
2024/03/08 12:02:31;;;;;;;28.80;17.27;;;10.00;99.90;;;;;;5107685;27;20036;-76
2024/03/08 12:04:59;;;;;;;22.90;15.37;;;10.10;99.90;;;;;;5107515;27;20082;-69
2024/03/08 12:07:25;;;;;;;22.63;15.47;;;10.20;99.90;;;;;;5111886;28;20061;-77
2024/03/08 12:10:22;;;;;;;25.10;15.57;;;10.20;99.90;;;;;;5109886;28;20028;-75
2024/03/08 12:12:50;;;;;;;22.43;14.80;;;10.00;99.90;;;;;;5109224;27;20024;-73
2024/03/08 12:15:17;;;;;;;25.60;16.80;;;10.00;99.90;;;;;;5107781;27;20118;-72
2024/03/08 12:17:43;;;;;;;23.20;15.00;;;9.90;99.90;;;;;;5108065;28;20023;-72
2024/03/08 12:20:17;;;;;;;23.33;14.73;;;10.00;99.90;;;;;;5107734;28;20514;-72
2024/03/08 12:22:45;;;;;;;22.50;14.93;;;10.20;99.90;;;;;;5105027;28;20066;-71
2024/03/08 12:25:12;;;;;;;24.07;14.80;;;10.30;99.90;;;;;;5108408;28;20019;-72
2024/03/08 12:27:39;;;;;;;22.03;14.50;;;10.30;99.90;;;;;;5106683;28;20483;-72
2024/03/08 12:30:21;;;;;;;23.47;15.53;;;10.30;99.90;;;;;;5104351;28;20023;-72
2024/03/08 12:32:56;;;;;;;23.70;14.63;;;10.40;99.90;;;;;;5106911;28;20050;-73
2024/03/08 12:35:23;;;;;;;23.60;15.20;;;10.40;99.90;;;;;;5107114;27;20154;-71
2024/03/08 12:37:52;;;;;;;23.03;15.33;;;10.40;99.90;;;;;;5110912;28;20139;-72